Soaring Guidance
Issued by NWS Reno, NV

Home | Current Version | Previous Version | Text Only | Print | Product List | Glossary On
Versions: 1 2 3 4 5 6 7 8 9 10 11 12
000
UXUS97 KREV 251349
SRGREV

SOARING FORECAST
NATIONAL WEATHER SERVICE - RENO NV
700 AM PDT THU AUG 25 2016

THIS SOARING FORECAST IS FOR THE EASTERN SIERRA AND WESTERN NEVADA
WITH SPECIFIC INDICES FOR THE GREATER RENO AREA.

THIS FORECAST IS PREPARED DAILY BY 700 AM AND IS NOT UPDATED.

FOR CURRENT FLIGHT CONDITIONS...FORECASTS...AND ADVISORIES...ACCESS
YOUR LOCAL BRIEFING OUTLET OR FLIGHT SERVICE STATION.

*******************************************************************
FORECASTED LOCAL INDICES FOR RENO:        TODAY     YESTERDAY
FORECASTED MAX TEMP AT RENO (DEG F).....     88          93
FORECASTED TRIGGER TEMPERATURE (DEG F)..     73          74
   EXCEEDED YESTERDAY BY 1055 AM PDT
FORECASTED MAXIMUM ALTITUDE (FT MSL)....  16800       15600
FORECASTED SOARING INDEX (FPM)..........   1074         888
FORECASTED K-INDEX.........VALID 18Z....      7           3
FORECASTED K-INDEX.........VALID 00Z....      9           7
FORECASTED LIFTED INDEX....VALID 18Z....      8           9
FORECASTED LIFTED INDEX....VALID 00Z....      6           7

AFTERNOON WINDS ALOFT FORECAST
MSL (FT) WIND/TEMP
9000  3505/+14
10000 9903/+11
12000 9900/+05
14000 9903/+00
16000 9906/-04
18000 3316/-09
24000 3520/-22
30000 3221/-39
34000 3226/-49
39000 3042/-56

SLIDE MOUNTAIN DATA:
     DATE       TIME     TEMP  DEWPT   RH         WIND (MPH)
                        (F)   (F)           | DIR  SPEED GUST
2016-08-25    05:20      48    22     24    | 226    0    1
2016-08-25    05:00      48    22     24    | 225    1    3
2016-08-25    04:50      49    24     24    | 220    0    2
2016-08-25    04:30      49    24     24    | 207    0    1

RENO TAF FORECAST:
KRNO 251120Z 2512/2612 29005KT P6SM SKC
     FM251900 04005KT P6SM SKC
     FM260100 VRB03KT P6SM SKC

CARSON CITY TAF FORECAST:
KCXP 251120Z 2512/2612 VRB03KT P6SM SKC
     FM252000 05011KT P6SM SKC
     FM260100 VRB03KT P6SM SKC

OUTLOOK FOR THE RENO-CARSON CITY-MINDEN AREA:
.FRIDAY...SUNNY. HIGHS 87 TO 92. LIGHT WINDS.

SUNRISE AND SUNSET
AUGUST 25 2016........SUNRISE   621 AM PDT   SUNSET   740 PM PDT
AUGUST 26 2016........SUNRISE   622 AM PDT   SUNSET   738 PM PDT


USA.gov is the U.S. government's official web portal to all federal, state and local government web resources and services.